createdAt,value
2022-10-19T00:01:56.518Z,100.00
2022-10-19T00:06:57.988Z,100.00
2022-10-19T00:11:59.559Z,100.00
2022-10-19T00:17:01.003Z,100.00
2022-10-19T00:22:02.476Z,100.00
2022-10-19T00:27:03.864Z,100.00
2022-10-19T00:32:05.903Z,100.00
2022-10-19T00:37:07.323Z,100.00
2022-10-19T00:42:12.156Z,100.00
2022-10-19T00:47:14.353Z,100.00
2022-10-19T00:52:19.526Z,100.00
2022-10-19T00:57:21.725Z,100.00
2022-10-19T01:02:23.155Z,100.00
2022-10-19T01:07:25.433Z,100.00
2022-10-19T01:12:32.917Z,100.00
2022-10-19T01:17:48.585Z,100.00
2022-10-19T01:23:04.303Z,100.00
2022-10-19T01:28:44.716Z,100.00
2022-10-19T01:33:59.301Z,100.00
2022-10-19T01:39:05.001Z,100.00
2022-10-19T01:44:17.530Z,100.00
2022-10-19T01:49:26.923Z,100.00
2022-10-19T01:54:32.849Z,100.00
2022-10-19T01:59:36.224Z,100.00
2022-10-19T02:04:40.803Z,100.00
2022-10-19T02:09:42.331Z,100.00
2022-10-19T02:14:47.303Z,100.00
2022-10-19T02:19:48.807Z,100.00
2022-10-19T02:24:50.355Z,100.00
2022-10-19T02:29:53.641Z,100.00
2022-10-19T02:34:55.104Z,100.00
2022-10-19T02:39:56.551Z,100.00
2022-10-19T02:45:02.360Z,100.00
2022-10-19T02:50:08.747Z,100.00
2022-10-19T02:55:10.346Z,100.00
2022-10-19T03:00:12.207Z,100.00
2022-10-19T03:05:13.726Z,100.00
2022-10-19T03:10:15.202Z,100.00
2022-10-19T03:15:18.470Z,100.00
2022-10-19T03:20:20.207Z,100.00
2022-10-19T03:25:21.589Z,100.00
2022-10-19T03:30:23.041Z,100.00
2022-10-19T03:35:24.539Z,100.00
2022-10-19T03:40:26.089Z,100.00
2022-10-19T03:45:27.468Z,100.00
2022-10-19T03:50:28.847Z,100.00
2022-10-19T03:55:30.279Z,100.00
2022-10-19T04:00:31.684Z,100.00
2022-10-19T04:05:33.163Z,100.00
2022-10-19T04:10:34.662Z,100.00
2022-10-19T04:15:36.460Z,100.00
2022-10-19T04:20:41.961Z,100.00
2022-10-19T04:25:43.395Z,100.00
2022-10-19T04:30:44.798Z,100.00
2022-10-19T04:35:46.184Z,100.00
2022-10-19T04:40:47.597Z,100.00
2022-10-19T04:45:48.998Z,100.00
2022-10-19T04:50:54.867Z,100.00
2022-10-19T04:55:56.664Z,100.00
2022-10-19T05:00:58.130Z,100.00
2022-10-19T05:05:59.788Z,100.00
2022-10-19T05:11:03.546Z,100.00
2022-10-19T05:16:07.078Z,100.00
2022-10-19T05:21:11.430Z,100.00
2022-10-19T05:26:18.198Z,100.00
2022-10-19T05:31:20.808Z,100.00
2022-10-19T05:36:26.436Z,100.00
2022-10-19T05:41:28.030Z,100.00
2022-10-19T05:46:31.247Z,100.00
2022-10-19T05:51:32.833Z,100.00
2022-10-19T05:56:34.530Z,100.00
2022-10-19T06:01:36.818Z,100.00
2022-10-19T06:06:38.256Z,100.00
2022-10-19T06:11:41.929Z,100.00
2022-10-19T06:16:45.627Z,100.00
2022-10-19T06:21:47.057Z,100.00
2022-10-19T06:26:48.535Z,100.00
2022-10-19T06:31:50.107Z,100.00
2022-10-19T06:36:51.582Z,100.00
2022-10-19T06:41:52.991Z,100.00
2022-10-19T06:46:54.487Z,100.00
2022-10-19T06:51:55.885Z,100.00
2022-10-19T06:56:57.314Z,100.00
2022-10-19T07:01:58.835Z,100.00
2022-10-19T07:07:00.234Z,100.00
2022-10-19T07:12:01.808Z,100.00
2022-10-19T07:17:03.303Z,100.00
2022-10-19T07:22:04.789Z,100.00
2022-10-19T07:27:06.179Z,100.00
2022-10-19T07:32:07.605Z,100.00
2022-10-19T07:37:09.030Z,100.00
2022-10-19T07:42:10.496Z,100.00
2022-10-19T07:47:12.016Z,100.00
2022-10-19T07:52:13.686Z,100.00
2022-10-19T07:57:16.043Z,100.00
2022-10-19T08:02:18.029Z,100.00
2022-10-19T08:07:19.557Z,100.00
2022-10-19T08:12:21.039Z,100.00
2022-10-19T08:17:22.562Z,100.00
2022-10-19T08:22:23.988Z,100.00
2022-10-19T08:27:25.576Z,100.00
2022-10-19T08:32:27.019Z,100.00
2022-10-19T08:37:43.846Z,100.00
2022-10-19T08:43:32.814Z,100.00
2022-10-19T08:48:37.935Z,100.00
2022-10-19T08:54:02.353Z,100.00
2022-10-19T08:59:08.897Z,100.00
2022-10-19T09:04:21.506Z,100.00
2022-10-19T09:09:23.899Z,100.00
2022-10-19T09:14:36.263Z,100.00
2022-10-19T09:19:37.795Z,100.00
2022-10-19T09:24:43.828Z,100.00
2022-10-19T09:29:50.340Z,99.26
2022-10-19T09:34:55.383Z,96.59
2022-10-19T09:39:56.943Z,94.70
2022-10-19T09:45:00.791Z,95.12
2022-10-19T09:50:24.176Z,92.65
2022-10-19T09:55:36.786Z,90.67
2022-10-19T10:00:44.115Z,91.35
2022-10-19T10:05:47.476Z,90.93
2022-10-19T10:11:05.193Z,88.87
2022-10-19T10:16:09.655Z,89.13
2022-10-19T10:21:25.292Z,89.67
2022-10-19T10:26:27.897Z,88.47
2022-10-19T10:31:30.639Z,87.40
2022-10-19T10:36:32.297Z,87.21
2022-10-19T10:41:40.547Z,87.92
2022-10-19T10:47:01.609Z,88.28
2022-10-19T10:52:09.980Z,86.72
2022-10-19T10:57:13.991Z,83.40
2022-10-19T11:02:42.952Z,84.62
2022-10-19T11:07:48.219Z,84.06
2022-10-19T11:12:58.405Z,82.58
2022-10-19T11:18:18.770Z,82.39
2022-10-19T11:23:44.684Z,82.97
2022-10-19T11:29:31.775Z,81.39
2022-10-19T11:35:06.530Z,79.96
2022-10-19T11:40:54.172Z,81.54
2022-10-19T11:46:29.460Z,80.51
2022-10-19T11:51:43.932Z,80.02
2022-10-19T11:57:02.849Z,79.41
2022-10-19T12:02:59.342Z,78.04
2022-10-19T12:08:12.065Z,75.51
2022-10-19T12:13:18.552Z,75.11
2022-10-19T12:18:58.138Z,73.01
2022-10-19T12:24:04.368Z,71.57
2022-10-19T12:29:14.411Z,70.07
2022-10-19T12:35:00.295Z,69.46
2022-10-19T12:40:18.604Z,69.47
2022-10-19T12:45:34.196Z,68.12
2022-10-19T12:50:51.411Z,66.91
2022-10-19T12:56:08.986Z,66.50
2022-10-19T13:01:33.251Z,63.85
2022-10-19T13:07:00.155Z,65.17
2022-10-19T13:12:21.421Z,64.60
2022-10-19T13:17:48.909Z,64.66
2022-10-19T13:22:51.467Z,66.06
2022-10-19T13:28:01.827Z,64.39
2022-10-19T13:33:31.538Z,64.61
2022-10-19T13:38:59.219Z,66.47
2022-10-19T13:44:11.426Z,67.08
2022-10-19T13:49:33.580Z,65.58
2022-10-19T13:55:13.605Z,67.96
2022-10-19T14:00:19.694Z,64.97
2022-10-19T14:05:39.256Z,66.26
2022-10-19T14:11:00.192Z,66.74
2022-10-19T14:16:03.136Z,67.29
2022-10-19T14:21:07.332Z,67.92
2022-10-19T14:26:20.226Z,69.63
2022-10-19T14:31:24.909Z,70.61
2022-10-19T14:36:43.105Z,69.81
2022-10-19T14:41:44.627Z,71.14
2022-10-19T14:46:48.235Z,67.75
2022-10-19T14:51:58.042Z,67.19
2022-10-19T14:57:11.779Z,66.57
2022-10-19T15:02:24.215Z,67.28
2022-10-19T15:07:35.340Z,65.78
2022-10-19T15:12:40.128Z,67.75
2022-10-19T15:18:04.416Z,67.84
2022-10-19T15:23:30.699Z,67.76
2022-10-19T15:28:38.959Z,65.35
2022-10-19T15:33:52.256Z,67.72
2022-10-19T15:39:18.270Z,66.49
2022-10-19T15:44:41.914Z,67.23
2022-10-19T15:49:44.262Z,69.79
2022-10-19T15:54:53.575Z,71.93
2022-10-19T15:59:57.100Z,73.90
2022-10-19T16:04:58.664Z,75.96
2022-10-19T16:10:00.214Z,76.87
2022-10-19T16:15:01.787Z,77.38
2022-10-19T16:20:04.558Z,77.28
2022-10-19T16:25:06.335Z,79.31
2022-10-19T16:30:08.824Z,79.79
2022-10-19T16:35:11.439Z,80.83
2022-10-19T16:40:12.890Z,81.54
2022-10-19T16:45:14.359Z,82.09
2022-10-19T16:50:16.016Z,82.61
2022-10-19T16:55:17.991Z,84.48
2022-10-19T17:00:19.444Z,86.81
2022-10-19T17:05:20.818Z,89.12
2022-10-19T17:10:22.272Z,90.83
2022-10-19T17:15:42.015Z,91.89
2022-10-19T17:20:44.183Z,91.70
2022-10-19T17:25:48.856Z,92.69
2022-10-19T17:30:52.225Z,94.00
2022-10-19T17:35:53.682Z,94.03
2022-10-19T17:40:55.276Z,94.11
2022-10-19T17:45:58.674Z,93.91
2022-10-19T17:51:04.070Z,94.45
2022-10-19T17:56:07.226Z,94.56
2022-10-19T18:01:11.223Z,95.00
2022-10-19T18:06:18.267Z,94.24
2022-10-19T18:11:26.036Z,93.93
2022-10-19T18:16:31.316Z,91.02
2022-10-19T18:21:38.371Z,90.03
2022-10-19T18:26:39.843Z,88.16
2022-10-19T18:31:41.463Z,87.62
2022-10-19T18:36:43.665Z,87.05
2022-10-19T18:41:45.235Z,87.20
2022-10-19T18:46:46.635Z,88.10
2022-10-19T18:51:54.074Z,88.10
2022-10-19T18:56:57.447Z,88.92
2022-10-19T19:01:58.912Z,89.00
2022-10-19T19:07:00.503Z,89.90
2022-10-19T19:12:01.998Z,90.08
2022-10-19T19:17:03.419Z,90.00
2022-10-19T19:22:08.808Z,90.54
2022-10-19T19:27:10.462Z,90.68
2022-10-19T19:32:11.981Z,91.19
2022-10-19T19:37:13.563Z,91.17
2022-10-19T19:42:16.220Z,90.82
2022-10-19T19:47:19.271Z,91.26
2022-10-19T19:52:20.865Z,91.98
2022-10-19T19:57:22.815Z,91.87
2022-10-19T20:02:24.288Z,92.52
2022-10-19T20:07:26.924Z,92.99
2022-10-19T20:12:29.192Z,92.90
2022-10-19T20:17:30.651Z,93.50
2022-10-19T20:22:32.336Z,94.31
2022-10-19T20:27:36.995Z,93.69
2022-10-19T20:32:39.105Z,95.27
2022-10-19T20:37:40.657Z,95.29
2022-10-19T20:42:43.759Z,95.56
2022-10-19T20:47:45.139Z,96.26
2022-10-19T20:52:46.654Z,96.48
2022-10-19T20:57:48.243Z,96.51
2022-10-19T21:02:49.720Z,96.15
2022-10-19T21:07:51.122Z,96.91
2022-10-19T21:12:52.505Z,96.66
2022-10-19T21:17:53.921Z,97.52
2022-10-19T21:22:55.339Z,97.37
2022-10-19T21:27:56.770Z,98.48
2022-10-19T21:32:58.323Z,98.88
2022-10-19T21:37:59.947Z,99.40
2022-10-19T21:43:01.383Z,99.05
2022-10-19T21:48:02.754Z,99.47
2022-10-19T21:53:04.204Z,99.08
2022-10-19T21:58:05.653Z,99.43
2022-10-19T22:03:07.285Z,100.00
2022-10-19T22:08:08.699Z,100.00
2022-10-19T22:13:10.150Z,100.00
2022-10-19T22:18:11.631Z,100.00
2022-10-19T22:23:13.014Z,100.00
2022-10-19T22:28:14.414Z,100.00
2022-10-19T22:33:15.895Z,100.00
2022-10-19T22:38:17.296Z,100.00
2022-10-19T22:43:19.047Z,100.00
2022-10-19T22:48:20.465Z,100.00
2022-10-19T22:53:23.239Z,100.00
2022-10-19T22:58:24.635Z,100.00
2022-10-19T23:03:26.076Z,100.00
2022-10-19T23:08:27.684Z,100.00
2022-10-19T23:13:29.211Z,100.00
2022-10-19T23:18:31.909Z,100.00
2022-10-19T23:23:34.587Z,100.00
2022-10-19T23:28:38.155Z,100.00
2022-10-19T23:33:40.190Z,100.00
2022-10-19T23:38:43.554Z,100.00
2022-10-19T23:43:45.596Z,100.00
2022-10-19T23:48:47.184Z,100.00
2022-10-19T23:53:51.021Z,100.00
2022-10-19T23:58:52.955Z,100.00
